sensor_id;sensor_type;location;lat;lon;timestamp;temperature;humidity
73665;DHT22;61964;52.052;4.474;2023-07-13T00:01:13;19.90;69.76
73665;DHT22;61964;52.052;4.474;2023-07-13T00:03:39;19.91;69.61
73665;DHT22;61964;52.052;4.474;2023-07-13T00:06:07;19.94;69.24
73665;DHT22;61964;52.052;4.474;2023-07-13T00:08:34;19.94;69.10
73665;DHT22;61964;52.052;4.474;2023-07-13T00:11:01;19.98;68.98
73665;DHT22;61964;52.052;4.474;2023-07-13T00:13:27;19.98;68.76
73665;DHT22;61964;52.052;4.474;2023-07-13T00:15:53;19.98;69.20
73665;DHT22;61964;52.052;4.474;2023-07-13T00:18:20;20.03;68.78
73665;DHT22;61964;52.052;4.474;2023-07-13T00:20:46;20.06;68.46
73665;DHT22;61964;52.052;4.474;2023-07-13T00:23:12;20.11;68.56
73665;DHT22;61964;52.052;4.474;2023-07-13T00:25:37;20.14;68.36
73665;DHT22;61964;52.052;4.474;2023-07-13T00:28:03;20.07;67.90
73665;DHT22;61964;52.052;4.474;2023-07-13T00:30:29;20.00;68.36
73665;DHT22;61964;52.052;4.474;2023-07-13T00:32:55;20.04;68.04
73665;DHT22;61964;52.052;4.474;2023-07-13T00:35:21;20.06;68.49
73665;DHT22;61964;52.052;4.474;2023-07-13T00:37:46;20.04;68.20
73665;DHT22;61964;52.052;4.474;2023-07-13T00:40:15;20.06;68.39
73665;DHT22;61964;52.052;4.474;2023-07-13T00:42:41;20.09;68.11
73665;DHT22;61964;52.052;4.474;2023-07-13T00:48:21;20.00;67.95
73665;DHT22;61964;52.052;4.474;2023-07-13T00:50:52;20.03;67.89
73665;DHT22;61964;52.052;4.474;2023-07-13T00:53:20;20.00;67.77
73665;DHT22;61964;52.052;4.474;2023-07-13T00:55:49;19.97;68.10
73665;DHT22;61964;52.052;4.474;2023-07-13T00:58:16;19.93;68.38
73665;DHT22;61964;52.052;4.474;2023-07-13T01:00:42;19.86;68.52
73665;DHT22;61964;52.052;4.474;2023-07-13T01:03:08;19.79;68.47
73665;DHT22;61964;52.052;4.474;2023-07-13T01:05:35;19.67;68.45
73665;DHT22;61964;52.052;4.474;2023-07-13T01:08:02;19.58;68.38
73665;DHT22;61964;52.052;4.474;2023-07-13T01:10:29;19.60;68.53
73665;DHT22;61964;52.052;4.474;2023-07-13T01:12:55;19.53;68.50
73665;DHT22;61964;52.052;4.474;2023-07-13T01:15:41;19.51;68.81
73665;DHT22;61964;52.052;4.474;2023-07-13T01:18:10;19.45;68.41
73665;DHT22;61964;52.052;4.474;2023-07-13T01:20:37;19.38;68.44
73665;DHT22;61964;52.052;4.474;2023-07-13T01:23:09;19.32;68.80
73665;DHT22;61964;52.052;4.474;2023-07-13T01:25:37;19.29;68.95
73665;DHT22;61964;52.052;4.474;2023-07-13T01:28:07;19.29;68.82
73665;DHT22;61964;52.052;4.474;2023-07-13T01:30:38;19.25;68.85
73665;DHT22;61964;52.052;4.474;2023-07-13T01:33:08;19.18;68.86
73665;DHT22;61964;52.052;4.474;2023-07-13T01:35:35;19.08;69.07
73665;DHT22;61964;52.052;4.474;2023-07-13T01:38:01;19.12;69.11
73665;DHT22;61964;52.052;4.474;2023-07-13T01:40:29;19.10;68.68
73665;DHT22;61964;52.052;4.474;2023-07-13T01:42:55;19.05;68.87
73665;DHT22;61964;52.052;4.474;2023-07-13T01:45:21;19.07;68.96
73665;DHT22;61964;52.052;4.474;2023-07-13T01:47:47;19.05;69.11
73665;DHT22;61964;52.052;4.474;2023-07-13T01:50:13;19.01;68.67
73665;DHT22;61964;52.052;4.474;2023-07-13T01:52:38;18.98;68.74
73665;DHT22;61964;52.052;4.474;2023-07-13T01:55:05;18.87;68.82
73665;DHT22;61964;52.052;4.474;2023-07-13T01:57:31;18.90;69.11
73665;DHT22;61964;52.052;4.474;2023-07-13T01:59:56;18.88;69.33
73665;DHT22;61964;52.052;4.474;2023-07-13T02:02:22;18.87;69.57
73665;DHT22;61964;52.052;4.474;2023-07-13T02:04:48;18.81;69.65
73665;DHT22;61964;52.052;4.474;2023-07-13T02:07:14;18.84;69.70
73665;DHT22;61964;52.052;4.474;2023-07-13T02:09:40;18.75;69.81
73665;DHT22;61964;52.052;4.474;2023-07-13T02:12:08;18.74;69.92
73665;DHT22;61964;52.052;4.474;2023-07-13T02:14:34;18.71;69.87
73665;DHT22;61964;52.052;4.474;2023-07-13T02:17:00;18.68;69.58
73665;DHT22;61964;52.052;4.474;2023-07-13T02:19:25;18.65;69.67
73665;DHT22;61964;52.052;4.474;2023-07-13T02:21:51;18.64;69.44
73665;DHT22;61964;52.052;4.474;2023-07-13T02:24:17;18.67;69.50
73665;DHT22;61964;52.052;4.474;2023-07-13T02:26:44;18.63;69.88
73665;DHT22;61964;52.052;4.474;2023-07-13T02:29:11;18.56;69.66
73665;DHT22;61964;52.052;4.474;2023-07-13T02:31:37;18.56;69.59
73665;DHT22;61964;52.052;4.474;2023-07-13T02:34:04;18.53;69.51
73665;DHT22;61964;52.052;4.474;2023-07-13T02:36:30;18.43;69.95
73665;DHT22;61964;52.052;4.474;2023-07-13T02:38:57;18.43;70.12
73665;DHT22;61964;52.052;4.474;2023-07-13T02:41:23;18.44;70.03
73665;DHT22;61964;52.052;4.474;2023-07-13T02:43:49;18.40;70.30
73665;DHT22;61964;52.052;4.474;2023-07-13T02:46:14;18.34;70.06
73665;DHT22;61964;52.052;4.474;2023-07-13T02:48:40;18.33;70.40
73665;DHT22;61964;52.052;4.474;2023-07-13T02:51:07;18.36;70.57
73665;DHT22;61964;52.052;4.474;2023-07-13T02:53:33;18.36;70.43
73665;DHT22;61964;52.052;4.474;2023-07-13T02:56:01;18.33;70.53
73665;DHT22;61964;52.052;4.474;2023-07-13T02:58:27;18.32;70.55
73665;DHT22;61964;52.052;4.474;2023-07-13T03:00:53;18.26;70.71
73665;DHT22;61964;52.052;4.474;2023-07-13T03:03:19;18.23;71.00
73665;DHT22;61964;52.052;4.474;2023-07-13T03:05:45;18.19;70.89
73665;DHT22;61964;52.052;4.474;2023-07-13T03:08:16;18.14;71.12
73665;DHT22;61964;52.052;4.474;2023-07-13T03:10:41;18.14;71.02
73665;DHT22;61964;52.052;4.474;2023-07-13T03:13:07;18.10;71.28
73665;DHT22;61964;52.052;4.474;2023-07-13T03:15:33;18.10;71.63
73665;DHT22;61964;52.052;4.474;2023-07-13T03:17:59;18.08;72.09
73665;DHT22;61964;52.052;4.474;2023-07-13T03:20:24;18.05;71.96
73665;DHT22;61964;52.052;4.474;2023-07-13T03:22:50;17.99;72.39
73665;DHT22;61964;52.052;4.474;2023-07-13T03:25:16;18.01;72.30
73665;DHT22;61964;52.052;4.474;2023-07-13T03:27:41;18.01;72.64
73665;DHT22;61964;52.052;4.474;2023-07-13T03:30:08;18.01;72.84
73665;DHT22;61964;52.052;4.474;2023-07-13T03:32:33;18.01;72.91
73665;DHT22;61964;52.052;4.474;2023-07-13T03:34:59;17.95;72.82
73665;DHT22;61964;52.052;4.474;2023-07-13T03:37:25;17.96;72.95
73665;DHT22;61964;52.052;4.474;2023-07-13T03:39:51;17.96;72.71
73665;DHT22;61964;52.052;4.474;2023-07-13T03:42:16;17.99;73.14
73665;DHT22;61964;52.052;4.474;2023-07-13T03:44:42;18.01;73.18
73665;DHT22;61964;52.052;4.474;2023-07-13T03:47:11;17.99;73.13
73665;DHT22;61964;52.052;4.474;2023-07-13T03:49:37;18.01;73.72
73665;DHT22;61964;52.052;4.474;2023-07-13T03:52:03;18.08;73.49
73665;DHT22;61964;52.052;4.474;2023-07-13T03:54:29;18.08;73.77
73665;DHT22;61964;52.052;4.474;2023-07-13T03:56:56;18.12;73.84
73665;DHT22;61964;52.052;4.474;2023-07-13T03:59:22;18.23;73.84
73665;DHT22;61964;52.052;4.474;2023-07-13T04:01:47;18.28;73.74
73665;DHT22;61964;52.052;4.474;2023-07-13T04:04:13;18.33;73.51
73665;DHT22;61964;52.052;4.474;2023-07-13T04:06:39;18.40;73.36
73665;DHT22;61964;52.052;4.474;2023-07-13T04:09:05;18.37;73.39
73665;DHT22;61964;52.052;4.474;2023-07-13T04:11:32;18.43;73.11
73665;DHT22;61964;52.052;4.474;2023-07-13T04:13:58;18.50;73.13
73665;DHT22;61964;52.052;4.474;2023-07-13T04:16:24;18.57;73.30
73665;DHT22;61964;52.052;4.474;2023-07-13T04:18:51;18.64;73.32
73665;DHT22;61964;52.052;4.474;2023-07-13T04:21:20;18.74;73.28
73665;DHT22;61964;52.052;4.474;2023-07-13T04:23:46;18.83;73.30
73665;DHT22;61964;52.052;4.474;2023-07-13T04:26:12;18.87;73.46
73665;DHT22;61964;52.052;4.474;2023-07-13T04:28:38;18.90;73.33
73665;DHT22;61964;52.052;4.474;2023-07-13T04:31:04;18.97;73.39
73665;DHT22;61964;52.052;4.474;2023-07-13T04:33:30;19.02;73.38
73665;DHT22;61964;52.052;4.474;2023-07-13T04:35:57;19.08;73.06
73665;DHT22;61964;52.052;4.474;2023-07-13T04:38:27;19.10;73.04
73665;DHT22;61964;52.052;4.474;2023-07-13T04:40:56;19.16;72.99
73665;DHT22;61964;52.052;4.474;2023-07-13T04:43:23;19.22;73.11
73665;DHT22;61964;52.052;4.474;2023-07-13T04:45:51;19.29;73.13
73665;DHT22;61964;52.052;4.474;2023-07-13T04:48:17;19.35;73.02
73665;DHT22;61964;52.052;4.474;2023-07-13T04:50:43;19.38;72.90
73665;DHT22;61964;52.052;4.474;2023-07-13T04:53:10;19.41;72.85
73665;DHT22;61964;52.052;4.474;2023-07-13T04:55:37;19.49;72.49
73665;DHT22;61964;52.052;4.474;2023-07-13T04:58:03;19.53;72.38
73665;DHT22;61964;52.052;4.474;2023-07-13T05:00:29;19.63;72.18
73665;DHT22;61964;52.052;4.474;2023-07-13T05:02:56;19.79;72.04
73665;DHT22;61964;52.052;4.474;2023-07-13T05:05:23;19.86;71.50
73665;DHT22;61964;52.052;4.474;2023-07-13T05:07:49;19.89;70.93
73665;DHT22;61964;52.052;4.474;2023-07-13T05:10:15;19.94;71.31
73665;DHT22;61964;52.052;4.474;2023-07-13T05:12:41;20.03;70.22
73665;DHT22;61964;52.052;4.474;2023-07-13T05:15:07;20.04;70.63
73665;DHT22;61964;52.052;4.474;2023-07-13T05:17:33;20.00;70.12
73665;DHT22;61964;52.052;4.474;2023-07-13T05:19:59;20.00;70.02
73665;DHT22;61964;52.052;4.474;2023-07-13T05:22:25;20.06;69.49
73665;DHT22;61964;52.052;4.474;2023-07-13T05:24:50;20.01;69.32
73665;DHT22;61964;52.052;4.474;2023-07-13T05:27:16;20.00;69.22
73665;DHT22;61964;52.052;4.474;2023-07-13T05:29:42;20.06;69.01
73665;DHT22;61964;52.052;4.474;2023-07-13T05:32:08;20.06;69.21
73665;DHT22;61964;52.052;4.474;2023-07-13T05:34:33;20.13;69.90
73665;DHT22;61964;52.052;4.474;2023-07-13T05:36:59;20.17;69.13
73665;DHT22;61964;52.052;4.474;2023-07-13T05:39:25;20.24;68.44
73665;DHT22;61964;52.052;4.474;2023-07-13T05:41:53;20.37;67.88
73665;DHT22;61964;52.052;4.474;2023-07-13T05:44:18;20.45;67.14
73665;DHT22;61964;52.052;4.474;2023-07-13T05:46:44;20.61;67.39
73665;DHT22;61964;52.052;4.474;2023-07-13T05:49:10;20.69;66.92
73665;DHT22;61964;52.052;4.474;2023-07-13T05:51:37;20.82;64.73
73665;DHT22;61964;52.052;4.474;2023-07-13T05:54:03;20.75;65.38
73665;DHT22;61964;52.052;4.474;2023-07-13T05:56:29;20.78;65.53
73665;DHT22;61964;52.052;4.474;2023-07-13T05:58:56;20.68;64.76
73665;DHT22;61964;52.052;4.474;2023-07-13T06:01:22;20.59;65.22
73665;DHT22;61964;52.052;4.474;2023-07-13T06:03:49;20.73;64.43
73665;DHT22;61964;52.052;4.474;2023-07-13T06:06:16;20.69;64.76
73665;DHT22;61964;52.052;4.474;2023-07-13T06:08:42;20.67;64.60
73665;DHT22;61964;52.052;4.474;2023-07-13T06:14:00;20.62;65.54
73665;DHT22;61964;52.052;4.474;2023-07-13T06:16:26;20.78;64.91
73665;DHT22;61964;52.052;4.474;2023-07-13T06:18:52;20.78;64.97
73665;DHT22;61964;52.052;4.474;2023-07-13T06:21:20;20.78;64.78
73665;DHT22;61964;52.052;4.474;2023-07-13T06:23:48;20.91;64.37
73665;DHT22;61964;52.052;4.474;2023-07-13T06:26:14;20.93;64.08
73665;DHT22;61964;52.052;4.474;2023-07-13T06:28:40;21.02;63.50
73665;DHT22;61964;52.052;4.474;2023-07-13T06:31:09;21.03;63.47
73665;DHT22;61964;52.052;4.474;2023-07-13T06:33:36;21.18;64.03
73665;DHT22;61964;52.052;4.474;2023-07-13T06:36:04;21.33;63.53
73665;DHT22;61964;52.052;4.474;2023-07-13T06:38:31;21.53;62.18
73665;DHT22;61964;52.052;4.474;2023-07-13T06:40:57;21.61;62.87
73665;DHT22;61964;52.052;4.474;2023-07-13T06:43:22;21.74;62.83
73665;DHT22;61964;52.052;4.474;2023-07-13T06:45:50;21.90;61.03
73665;DHT22;61964;52.052;4.474;2023-07-13T06:48:18;21.97;61.90
73665;DHT22;61964;52.052;4.474;2023-07-13T06:50:46;22.11;60.78
73665;DHT22;61964;52.052;4.474;2023-07-13T06:53:13;22.19;61.53
73665;DHT22;61964;52.052;4.474;2023-07-13T06:55:39;22.13;60.22
73665;DHT22;61964;52.052;4.474;2023-07-13T06:58:06;22.01;61.19
73665;DHT22;61964;52.052;4.474;2023-07-13T07:00:32;21.81;61.12
73665;DHT22;61964;52.052;4.474;2023-07-13T07:02:58;21.57;61.74
73665;DHT22;61964;52.052;4.474;2023-07-13T07:05:24;21.44;62.67
73665;DHT22;61964;52.052;4.474;2023-07-13T07:07:52;21.43;63.07
73665;DHT22;61964;52.052;4.474;2023-07-13T07:10:18;21.51;62.95
73665;DHT22;61964;52.052;4.474;2023-07-13T07:12:45;21.51;61.65
73665;DHT22;61964;52.052;4.474;2023-07-13T07:15:11;21.47;61.75
73665;DHT22;61964;52.052;4.474;2023-07-13T07:17:37;21.57;61.60
73665;DHT22;61964;52.052;4.474;2023-07-13T07:20:04;21.68;61.86
73665;DHT22;61964;52.052;4.474;2023-07-13T07:22:30;21.74;61.60
73665;DHT22;61964;52.052;4.474;2023-07-13T07:24:57;21.78;62.17
73665;DHT22;61964;52.052;4.474;2023-07-13T07:27:24;21.77;61.86
73665;DHT22;61964;52.052;4.474;2023-07-13T07:29:50;21.71;62.66
73665;DHT22;61964;52.052;4.474;2023-07-13T07:32:16;21.64;61.69
73665;DHT22;61964;52.052;4.474;2023-07-13T07:34:42;21.61;61.88
73665;DHT22;61964;52.052;4.474;2023-07-13T07:37:12;21.73;62.03
73665;DHT22;61964;52.052;4.474;2023-07-13T07:39:38;21.85;60.86
73665;DHT22;61964;52.052;4.474;2023-07-13T07:42:04;21.82;60.82
73665;DHT22;61964;52.052;4.474;2023-07-13T07:44:31;21.77;61.21
73665;DHT22;61964;52.052;4.474;2023-07-13T07:46:57;21.75;61.30
73665;DHT22;61964;52.052;4.474;2023-07-13T07:49:23;21.85;61.05
73665;DHT22;61964;52.052;4.474;2023-07-13T07:51:49;21.75;61.29
73665;DHT22;61964;52.052;4.474;2023-07-13T07:54:16;21.90;61.84
73665;DHT22;61964;52.052;4.474;2023-07-13T07:56:42;22.05;60.46
73665;DHT22;61964;52.052;4.474;2023-07-13T07:59:08;22.09;60.57
73665;DHT22;61964;52.052;4.474;2023-07-13T08:01:34;22.15;59.80
73665;DHT22;61964;52.052;4.474;2023-07-13T08:03:59;22.26;60.13
73665;DHT22;61964;52.052;4.474;2023-07-13T08:06:25;22.29;60.07
73665;DHT22;61964;52.052;4.474;2023-07-13T08:08:51;22.32;59.49
73665;DHT22;61964;52.052;4.474;2023-07-13T08:11:17;22.28;59.51
73665;DHT22;61964;52.052;4.474;2023-07-13T08:13:43;22.18;59.84
73665;DHT22;61964;52.052;4.474;2023-07-13T08:16:08;22.26;60.19
73665;DHT22;61964;52.052;4.474;2023-07-13T08:18:34;22.25;60.26
73665;DHT22;61964;52.052;4.474;2023-07-13T08:21:07;22.05;60.03
73665;DHT22;61964;52.052;4.474;2023-07-13T08:23:34;21.81;60.29
73665;DHT22;61964;52.052;4.474;2023-07-13T08:26:00;21.90;61.02
73665;DHT22;61964;52.052;4.474;2023-07-13T08:28:27;21.74;60.65
73665;DHT22;61964;52.052;4.474;2023-07-13T08:30:53;21.78;60.39
73665;DHT22;61964;52.052;4.474;2023-07-13T08:33:21;21.85;59.54
73665;DHT22;61964;52.052;4.474;2023-07-13T08:35:50;21.92;59.09
73665;DHT22;61964;52.052;4.474;2023-07-13T08:38:17;21.88;59.04
73665;DHT22;61964;52.052;4.474;2023-07-13T08:40:44;22.06;58.49
73665;DHT22;61964;52.052;4.474;2023-07-13T08:43:26;22.26;58.77
73665;DHT22;61964;52.052;4.474;2023-07-13T08:49:01;22.81;57.80
73665;DHT22;61964;52.052;4.474;2023-07-13T08:52:31;22.80;57.89
73665;DHT22;61964;52.052;4.474;2023-07-13T08:54:43;22.81;57.05
73665;DHT22;61964;52.052;4.474;2023-07-13T08:57:19;22.66;57.14
73665;DHT22;61964;52.052;4.474;2023-07-13T08:59:47;22.57;57.75
73665;DHT22;61964;52.052;4.474;2023-07-13T09:02:46;22.50;58.28
73665;DHT22;61964;52.052;4.474;2023-07-13T09:05:29;22.57;57.11
73665;DHT22;61964;52.052;4.474;2023-07-13T09:08:27;22.77;57.01
73665;DHT22;61964;52.052;4.474;2023-07-13T09:14:34;22.76;56.73
73665;DHT22;61964;52.052;4.474;2023-07-13T09:17:04;22.86;57.23
73665;DHT22;61964;52.052;4.474;2023-07-13T09:19:34;23.00;57.05
73665;DHT22;61964;52.052;4.474;2023-07-13T09:22:04;23.13;56.82
73665;DHT22;61964;52.052;4.474;2023-07-13T09:24:41;23.37;57.43
73665;DHT22;61964;52.052;4.474;2023-07-13T09:27:25;23.51;56.15
73665;DHT22;61964;52.052;4.474;2023-07-13T09:30:30;23.10;57.23
73665;DHT22;61964;52.052;4.474;2023-07-13T09:32:58;22.89;58.20
73665;DHT22;61964;52.052;4.474;2023-07-13T09:35:27;22.74;56.91
73665;DHT22;61964;52.052;4.474;2023-07-13T09:38:19;22.53;57.41
73665;DHT22;61964;52.052;4.474;2023-07-13T09:43:39;22.69;57.25
73665;DHT22;61964;52.052;4.474;2023-07-13T09:46:24;22.62;57.20
73665;DHT22;61964;52.052;4.474;2023-07-13T09:48:50;22.43;57.62
73665;DHT22;61964;52.052;4.474;2023-07-13T09:51:16;22.45;58.63
73665;DHT22;61964;52.052;4.474;2023-07-13T09:53:42;22.63;57.36
73665;DHT22;61964;52.052;4.474;2023-07-13T09:56:27;22.93;57.08
73665;DHT22;61964;52.052;4.474;2023-07-13T09:58:53;23.18;57.16
73665;DHT22;61964;52.052;4.474;2023-07-13T10:01:36;23.28;56.62
73665;DHT22;61964;52.052;4.474;2023-07-13T10:04:11;23.57;56.33
73665;DHT22;61964;52.052;4.474;2023-07-13T10:06:40;23.78;56.22
73665;DHT22;61964;52.052;4.474;2023-07-13T10:09:09;24.05;56.67
73665;DHT22;61964;52.052;4.474;2023-07-13T10:11:37;24.12;54.44
73665;DHT22;61964;52.052;4.474;2023-07-13T10:14:28;24.03;54.15
73665;DHT22;61964;52.052;4.474;2023-07-13T10:17:03;23.76;55.78
73665;DHT22;61964;52.052;4.474;2023-07-13T10:19:32;23.75;54.68
73665;DHT22;61964;52.052;4.474;2023-07-13T10:22:24;23.57;54.90
73665;DHT22;61964;52.052;4.474;2023-07-13T10:24:49;23.76;53.74
73665;DHT22;61964;52.052;4.474;2023-07-13T10:27:26;23.75;54.54
73665;DHT22;61964;52.052;4.474;2023-07-13T10:30:09;23.68;53.80
73665;DHT22;61964;52.052;4.474;2023-07-13T10:32:37;23.51;53.84
73665;DHT22;61964;52.052;4.474;2023-07-13T10:35:03;23.22;54.64
73665;DHT22;61964;52.052;4.474;2023-07-13T10:37:51;23.17;55.53
73665;DHT22;61964;52.052;4.474;2023-07-13T10:40:26;23.08;55.05
73665;DHT22;61964;52.052;4.474;2023-07-13T10:42:56;23.38;55.08
73665;DHT22;61964;52.052;4.474;2023-07-13T10:45:24;23.50;55.30
73665;DHT22;61964;52.052;4.474;2023-07-13T10:47:54;23.75;54.87
73665;DHT22;61964;52.052;4.474;2023-07-13T10:50:24;23.76;55.31
73665;DHT22;61964;52.052;4.474;2023-07-13T10:53:01;24.06;55.49
73665;DHT22;61964;52.052;4.474;2023-07-13T10:55:58;24.34;54.02
73665;DHT22;61964;52.052;4.474;2023-07-13T11:01:19;23.81;54.24
73665;DHT22;61964;52.052;4.474;2023-07-13T11:04:05;23.95;55.35
73665;DHT22;61964;52.052;4.474;2023-07-13T11:06:38;23.95;54.32
73665;DHT22;61964;52.052;4.474;2023-07-13T11:09:30;23.79;54.89
73665;DHT22;61964;52.052;4.474;2023-07-13T11:12:02;24.05;53.42
73665;DHT22;61964;52.052;4.474;2023-07-13T11:14:37;24.23;52.28
73665;DHT22;61964;52.052;4.474;2023-07-13T11:20:39;24.72;50.40
73665;DHT22;61964;52.052;4.474;2023-07-13T11:23:29;24.98;49.99
73665;DHT22;61964;52.052;4.474;2023-07-13T11:25:55;25.11;51.25
73665;DHT22;61964;52.052;4.474;2023-07-13T11:28:25;25.36;49.05
73665;DHT22;61964;52.052;4.474;2023-07-13T11:31:13;25.58;48.38
73665;DHT22;61964;52.052;4.474;2023-07-13T11:34:01;25.56;48.75
73665;DHT22;61964;52.052;4.474;2023-07-13T11:36:35;25.46;48.77
73665;DHT22;61964;52.052;4.474;2023-07-13T11:39:32;25.45;47.65
73665;DHT22;61964;52.052;4.474;2023-07-13T11:42:03;25.16;48.75
73665;DHT22;61964;52.052;4.474;2023-07-13T11:44:32;25.29;48.06
73665;DHT22;61964;52.052;4.474;2023-07-13T11:47:08;25.14;48.30
73665;DHT22;61964;52.052;4.474;2023-07-13T11:49:45;25.39;49.00
73665;DHT22;61964;52.052;4.474;2023-07-13T11:52:35;25.89;48.92
73665;DHT22;61964;52.052;4.474;2023-07-13T11:55:16;26.30;46.91
73665;DHT22;61964;52.052;4.474;2023-07-13T11:58:00;26.79;46.70
73665;DHT22;61964;52.052;4.474;2023-07-13T12:00:30;27.04;44.30
73665;DHT22;61964;52.052;4.474;2023-07-13T12:03:01;26.96;45.17
73665;DHT22;61964;52.052;4.474;2023-07-13T12:05:28;27.17;44.14
73665;DHT22;61964;52.052;4.474;2023-07-13T12:07:54;26.85;44.80
73665;DHT22;61964;52.052;4.474;2023-07-13T12:10:26;27.27;43.69
73665;DHT22;61964;52.052;4.474;2023-07-13T12:13:05;27.10;43.74
73665;DHT22;61964;52.052;4.474;2023-07-13T12:15:42;26.71;44.71
73665;DHT22;61964;52.052;4.474;2023-07-13T12:18:35;26.25;44.71
73665;DHT22;61964;52.052;4.474;2023-07-13T12:21:02;26.00;46.94
73665;DHT22;61964;52.052;4.474;2023-07-13T12:23:34;26.31;44.28
73665;DHT22;61964;52.052;4.474;2023-07-13T12:26:06;26.68;43.90
73665;DHT22;61964;52.052;4.474;2023-07-13T12:28:40;27.04;43.36
73665;DHT22;61964;52.052;4.474;2023-07-13T12:34:19;27.46;41.97
73665;DHT22;61964;52.052;4.474;2023-07-13T12:36:49;26.79;43.50
73665;DHT22;61964;52.052;4.474;2023-07-13T12:39:38;26.76;44.45
73665;DHT22;61964;52.052;4.474;2023-07-13T12:42:30;27.09;44.44
73665;DHT22;61964;52.052;4.474;2023-07-13T12:45:05;27.24;41.99
73665;DHT22;61964;52.052;4.474;2023-07-13T12:47:42;27.22;43.42
73665;DHT22;61964;52.052;4.474;2023-07-13T12:50:15;27.46;43.41
73665;DHT22;61964;52.052;4.474;2023-07-13T12:52:44;27.46;43.04
73665;DHT22;61964;52.052;4.474;2023-07-13T12:55:22;27.54;43.79
73665;DHT22;61964;52.052;4.474;2023-07-13T12:57:56;27.64;43.80
73665;DHT22;61964;52.052;4.474;2023-07-13T13:00:50;27.36;44.43
73665;DHT22;61964;52.052;4.474;2023-07-13T13:03:45;27.53;44.46
73665;DHT22;61964;52.052;4.474;2023-07-13T13:06:35;27.53;43.11
73665;DHT22;61964;52.052;4.474;2023-07-13T13:09:01;27.19;44.37
73665;DHT22;61964;52.052;4.474;2023-07-13T13:11:31;27.40;45.83
73665;DHT22;61964;52.052;4.474;2023-07-13T13:13:57;27.92;43.53
73665;DHT22;61964;52.052;4.474;2023-07-13T13:16:31;27.95;42.97
73665;DHT22;61964;52.052;4.474;2023-07-13T13:19:21;27.98;42.19
73665;DHT22;61964;52.052;4.474;2023-07-13T13:21:48;27.68;44.25
73665;DHT22;61964;52.052;4.474;2023-07-13T13:24:22;27.39;43.12
73665;DHT22;61964;52.052;4.474;2023-07-13T13:26:50;27.26;44.44
73665;DHT22;61964;52.052;4.474;2023-07-13T13:29:19;27.29;45.11
73665;DHT22;61964;52.052;4.474;2023-07-13T13:31:58;27.03;43.82
73665;DHT22;61964;52.052;4.474;2023-07-13T13:34:25;26.85;44.00
73665;DHT22;61964;52.052;4.474;2023-07-13T13:36:52;26.82;45.58
73665;DHT22;61964;52.052;4.474;2023-07-13T13:39:21;26.69;44.21
73665;DHT22;61964;52.052;4.474;2023-07-13T13:41:50;26.20;45.66
73665;DHT22;61964;52.052;4.474;2023-07-13T13:44:17;26.07;46.50
73665;DHT22;61964;52.052;4.474;2023-07-13T13:46:47;26.68;43.93
73665;DHT22;61964;52.052;4.474;2023-07-13T13:49:22;26.98;43.55
73665;DHT22;61964;52.052;4.474;2023-07-13T13:51:49;27.16;41.95
73665;DHT22;61964;52.052;4.474;2023-07-13T13:54:17;27.19;44.69
73665;DHT22;61964;52.052;4.474;2023-07-13T13:56:46;26.83;43.58
73665;DHT22;61964;52.052;4.474;2023-07-13T13:59:13;26.95;42.96
73665;DHT22;61964;52.052;4.474;2023-07-13T14:01:42;26.99;42.63
73665;DHT22;61964;52.052;4.474;2023-07-13T14:04:20;27.02;43.27
73665;DHT22;61964;52.052;4.474;2023-07-13T14:06:47;27.09;43.10
73665;DHT22;61964;52.052;4.474;2023-07-13T14:09:15;26.55;44.91
73665;DHT22;61964;52.052;4.474;2023-07-13T14:11:42;26.21;45.07
73665;DHT22;61964;52.052;4.474;2023-07-13T14:14:25;26.00;46.91
73665;DHT22;61964;52.052;4.474;2023-07-13T14:16:52;26.21;44.91
73665;DHT22;61964;52.052;4.474;2023-07-13T14:19:21;26.14;45.59
73665;DHT22;61964;52.052;4.474;2023-07-13T14:21:47;26.22;46.20
73665;DHT22;61964;52.052;4.474;2023-07-13T14:24:15;26.32;46.44
73665;DHT22;61964;52.052;4.474;2023-07-13T14:26:41;26.25;45.22
73665;DHT22;61964;52.052;4.474;2023-07-13T14:29:16;26.10;45.75
73665;DHT22;61964;52.052;4.474;2023-07-13T14:31:44;26.11;46.36
73665;DHT22;61964;52.052;4.474;2023-07-13T14:34:11;25.93;46.67
73665;DHT22;61964;52.052;4.474;2023-07-13T14:36:47;25.72;47.63
73665;DHT22;61964;52.052;4.474;2023-07-13T14:39:23;25.67;48.93
73665;DHT22;61964;52.052;4.474;2023-07-13T14:41:56;25.47;48.39
73665;DHT22;61964;52.052;4.474;2023-07-13T14:44:29;24.91;48.84
73665;DHT22;61964;52.052;4.474;2023-07-13T14:46:58;24.53;49.63
73665;DHT22;61964;52.052;4.474;2023-07-13T14:52:19;24.95;48.84
73665;DHT22;61964;52.052;4.474;2023-07-13T14:54:46;24.87;48.88
73665;DHT22;61964;52.052;4.474;2023-07-13T14:57:17;25.05;49.17
73665;DHT22;61964;52.052;4.474;2023-07-13T14:59:44;25.15;48.13
73665;DHT22;61964;52.052;4.474;2023-07-13T15:05:17;24.78;49.89
73665;DHT22;61964;52.052;4.474;2023-07-13T15:07:44;24.84;50.55
73665;DHT22;61964;52.052;4.474;2023-07-13T15:10:35;25.04;48.12
73665;DHT22;61964;52.052;4.474;2023-07-13T15:13:15;25.16;49.25
73665;DHT22;61964;52.052;4.474;2023-07-13T15:15:45;25.25;48.22
73665;DHT22;61964;52.052;4.474;2023-07-13T15:18:12;25.21;48.12
73665;DHT22;61964;52.052;4.474;2023-07-13T15:20:38;25.14;47.84
73665;DHT22;61964;52.052;4.474;2023-07-13T15:23:04;24.92;50.38
73665;DHT22;61964;52.052;4.474;2023-07-13T15:25:32;25.04;50.86
73665;DHT22;61964;52.052;4.474;2023-07-13T15:27:59;25.05;48.86
73665;DHT22;61964;52.052;4.474;2023-07-13T15:30:29;24.92;49.51
73665;DHT22;61964;52.052;4.474;2023-07-13T15:33:05;24.80;50.53
73665;DHT22;61964;52.052;4.474;2023-07-13T15:35:34;24.72;50.82
73665;DHT22;61964;52.052;4.474;2023-07-13T15:38:00;24.75;50.61
73665;DHT22;61964;52.052;4.474;2023-07-13T15:40:27;24.87;49.98
73665;DHT22;61964;52.052;4.474;2023-07-13T15:42:52;24.88;50.37
73665;DHT22;61964;52.052;4.474;2023-07-13T15:45:23;24.88;48.73
73665;DHT22;61964;52.052;4.474;2023-07-13T15:47:51;24.63;49.97
73665;DHT22;61964;52.052;4.474;2023-07-13T15:50:22;24.75;50.95
73665;DHT22;61964;52.052;4.474;2023-07-13T15:52:53;24.92;49.47
73665;DHT22;61964;52.052;4.474;2023-07-13T15:55:20;25.02;48.98
73665;DHT22;61964;52.052;4.474;2023-07-13T15:57:51;25.08;48.66
73665;DHT22;61964;52.052;4.474;2023-07-13T16:00:24;25.07;48.91
73665;DHT22;61964;52.052;4.474;2023-07-13T16:02:51;25.16;50.59
73665;DHT22;61964;52.052;4.474;2023-07-13T16:05:19;25.33;50.11
73665;DHT22;61964;52.052;4.474;2023-07-13T16:07:50;25.36;50.41
73665;DHT22;61964;52.052;4.474;2023-07-13T16:10:22;25.16;49.10
73665;DHT22;61964;52.052;4.474;2023-07-13T16:12:48;25.02;50.90
73665;DHT22;61964;52.052;4.474;2023-07-13T16:15:18;24.98;50.75
73665;DHT22;61964;52.052;4.474;2023-07-13T16:17:48;25.04;51.12